createdAt,value
2018-04-12T00:01:10.152Z,11.60
2018-04-12T00:03:39.240Z,11.50
2018-04-12T00:06:07.524Z,11.50
2018-04-12T00:08:35.807Z,11.60
2018-04-12T00:11:04.139Z,11.50
2018-04-12T00:13:32.183Z,11.50
2018-04-12T00:16:00.588Z,11.70
2018-04-12T00:18:28.897Z,11.60
2018-04-12T00:20:57.190Z,11.40
2018-04-12T00:23:25.507Z,11.30
2018-04-12T00:25:54.428Z,11.10
2018-04-12T00:28:22.759Z,10.90
2018-04-12T00:30:51.662Z,11.10
2018-04-12T00:33:19.947Z,11.00
2018-04-12T00:35:48.244Z,10.90
2018-04-12T00:38:16.576Z,11.10
2018-04-12T00:40:44.894Z,11.10
2018-04-12T00:43:13.206Z,11.10
2018-04-12T00:45:41.551Z,11.10
2018-04-12T00:48:10.163Z,11.20
2018-04-12T00:50:39.964Z,11.10
2018-04-12T00:53:08.307Z,11.10
2018-04-12T00:55:37.123Z,11.20
2018-04-12T00:58:05.411Z,11.10
2018-04-12T01:00:33.739Z,11.00
2018-04-12T01:03:02.027Z,10.80
2018-04-12T01:05:30.314Z,10.80
2018-04-12T01:07:58.677Z,10.70
2018-04-12T01:10:27.603Z,10.70
2018-04-12T01:12:56.323Z,10.60
2018-04-12T01:15:24.871Z,10.80
2018-04-12T01:17:53.174Z,10.60
2018-04-12T01:20:21.459Z,10.60
2018-04-12T01:22:49.779Z,10.50
2018-04-12T01:25:18.070Z,10.50
2018-04-12T01:27:46.502Z,10.60
2018-04-12T01:30:15.183Z,10.60
2018-04-12T01:32:43.484Z,10.40
2018-04-12T01:35:12.723Z,10.50
2018-04-12T01:37:41.219Z,10.40
2018-04-12T01:40:09.573Z,10.60
2018-04-12T01:42:38.301Z,10.40
2018-04-12T01:45:07.345Z,10.40
2018-04-12T01:47:35.639Z,10.40
2018-04-12T01:50:04.023Z,10.50
2018-04-12T01:52:32.314Z,10.50
2018-04-12T01:55:00.611Z,10.60
2018-04-12T01:57:28.967Z,10.70
2018-04-12T01:59:58.180Z,10.70
2018-04-12T02:02:27.138Z,10.60
2018-04-12T02:04:55.590Z,10.60
2018-04-12T02:07:23.879Z,10.80
2018-04-12T02:09:52.175Z,10.70
2018-04-12T02:12:20.759Z,10.70
2018-04-12T02:14:49.058Z,10.70
2018-04-12T02:17:17.627Z,10.60
2018-04-12T02:19:46.751Z,10.30
2018-04-12T02:22:15.811Z,10.00
2018-04-12T02:24:44.218Z,10.00
2018-04-12T02:27:13.092Z,9.90
2018-04-12T02:29:41.384Z,9.90
2018-04-12T02:32:09.689Z,9.80
2018-04-12T02:34:38.028Z,9.80
2018-04-12T02:37:06.416Z,9.70
2018-04-12T02:39:34.820Z,9.60
2018-04-12T02:42:03.724Z,9.50
2018-04-12T02:44:32.148Z,9.50
2018-04-12T02:47:00.434Z,9.60
2018-04-12T02:49:28.755Z,9.40
2018-04-12T02:51:57.716Z,9.30
2018-04-12T02:54:26.012Z,9.30
2018-04-12T02:56:54.420Z,9.20
2018-04-12T02:59:22.738Z,9.30
2018-04-12T03:01:51.036Z,9.60
2018-04-12T03:04:19.798Z,9.70
2018-04-12T03:06:48.120Z,9.70
2018-04-12T03:09:16.412Z,9.70
2018-04-12T03:11:44.700Z,9.60
2018-04-12T03:14:13.027Z,9.70
2018-04-12T03:16:41.307Z,9.80
2018-04-12T03:19:09.591Z,9.60
2018-04-12T03:21:37.927Z,9.60
2018-04-12T03:24:06.210Z,9.50
2018-04-12T03:26:34.496Z,9.50
2018-04-12T03:29:02.803Z,9.40
2018-04-12T03:31:31.847Z,9.20
2018-04-12T03:34:00.174Z,9.20
2018-04-12T03:36:29.230Z,9.50
2018-04-12T03:38:58.023Z,9.50
2018-04-12T03:41:26.435Z,9.40
2018-04-12T03:43:54.719Z,9.20
2018-04-12T03:46:23.815Z,9.10
2018-04-12T03:48:52.971Z,9.20
2018-04-12T03:51:21.256Z,9.20
2018-04-12T03:53:49.547Z,9.20
2018-04-12T03:56:17.886Z,9.20
2018-04-12T03:58:46.179Z,9.20
2018-04-12T04:01:14.468Z,9.20
2018-04-12T04:03:42.784Z,9.20
2018-04-12T04:06:11.218Z,9.10
2018-04-12T04:08:39.551Z,9.20
2018-04-12T04:11:07.843Z,9.30
2018-04-12T04:13:36.268Z,9.30
2018-04-12T04:16:22.642Z,9.30
2018-04-12T04:32:28.303Z,9.80
2018-04-12T04:34:56.587Z,9.70
2018-04-12T04:37:24.934Z,9.50
2018-04-12T04:39:53.254Z,9.50
2018-04-12T04:42:21.543Z,9.50
2018-04-12T04:44:49.895Z,9.40
2018-04-12T04:47:18.175Z,9.50
2018-04-12T04:49:46.471Z,9.80
2018-04-12T04:52:14.719Z,9.90
2018-04-12T04:54:43.009Z,9.80
2018-04-12T04:57:11.295Z,9.70
2018-04-12T04:59:39.633Z,9.50
2018-04-12T05:02:07.927Z,9.60
2018-04-12T05:04:37.721Z,9.60
2018-04-12T05:07:14.507Z,9.70
2018-04-12T05:09:42.595Z,9.80
2018-04-12T05:12:10.879Z,9.90
2018-04-12T05:14:39.203Z,10.00
2018-04-12T05:17:07.527Z,10.00
2018-04-12T05:19:35.871Z,10.30
2018-04-12T05:22:04.164Z,10.50
2018-04-12T05:24:32.451Z,10.60
2018-04-12T05:27:00.781Z,10.70
2018-04-12T05:29:29.070Z,10.70
2018-04-12T05:31:57.399Z,10.80
2018-04-12T05:34:26.507Z,12.00
2018-04-12T05:36:54.807Z,12.00
2018-04-12T05:39:23.100Z,12.80
2018-04-12T05:41:52.801Z,15.10
2018-04-12T05:44:21.624Z,15.10
2018-04-12T05:46:50.052Z,16.40
2018-04-12T05:49:18.991Z,17.10
2018-04-12T05:51:47.359Z,17.80
2018-04-12T05:54:15.664Z,17.90
2018-04-12T05:56:44.123Z,17.90
2018-04-12T05:59:13.067Z,18.10
2018-04-12T06:01:42.047Z,17.80
2018-04-12T06:04:10.863Z,17.10
2018-04-12T06:06:39.157Z,16.10
2018-04-12T06:09:07.447Z,16.40
2018-04-12T06:11:35.784Z,17.40
2018-04-12T06:14:04.242Z,18.40
2018-04-12T06:16:32.540Z,18.40
2018-04-12T06:19:00.876Z,19.00
2018-04-12T06:21:29.165Z,19.50
2018-04-12T06:23:57.456Z,20.10
2018-04-12T06:26:25.798Z,19.70
2018-04-12T06:28:56.345Z,19.10
2018-04-12T06:31:24.743Z,19.70
2018-04-12T06:33:53.115Z,21.00
2018-04-12T06:36:22.004Z,21.10
2018-04-12T06:38:50.315Z,21.60
2018-04-12T06:41:18.603Z,21.60
2018-04-12T06:43:47.619Z,20.60
2018-04-12T06:46:15.906Z,21.40
2018-04-12T06:48:44.195Z,21.80
2018-04-12T06:51:13.115Z,22.30
2018-04-12T06:53:41.426Z,22.50
2018-04-12T06:56:10.699Z,22.90
2018-04-12T06:58:39.119Z,23.60
2018-04-12T07:01:07.942Z,24.00
2018-04-12T07:03:36.412Z,24.30
2018-04-12T07:06:04.751Z,24.00
2018-04-12T07:08:33.059Z,23.60
2018-04-12T07:11:01.350Z,23.50
2018-04-12T07:13:29.700Z,22.40
2018-04-12T07:15:58.327Z,22.80
2018-04-12T07:18:26.616Z,23.00
2018-04-12T07:20:55.168Z,23.10
2018-04-12T07:23:23.630Z,23.70
2018-04-12T07:25:52.232Z,23.40
2018-04-12T07:28:20.599Z,21.70
2018-04-12T07:30:48.887Z,21.90
2018-04-12T07:33:17.175Z,20.80
2018-04-12T07:35:45.512Z,20.20
2018-04-12T07:38:13.794Z,19.60
2018-04-12T07:40:42.295Z,19.30
2018-04-12T07:43:10.634Z,19.10
2018-04-12T07:45:39.078Z,19.10
2018-04-12T07:48:07.395Z,19.50
2018-04-12T07:50:35.683Z,20.10
2018-04-12T07:53:04.506Z,20.40
2018-04-12T07:55:32.839Z,20.20
2018-04-12T07:58:01.124Z,20.30
2018-04-12T08:00:29.410Z,20.40
2018-04-12T08:02:57.751Z,19.50
2018-04-12T08:05:26.703Z,19.50
2018-04-12T08:07:54.991Z,19.00
2018-04-12T08:10:23.467Z,19.00
2018-04-12T08:12:51.761Z,18.70
2018-04-12T08:15:20.055Z,18.90
2018-04-12T08:17:48.382Z,19.10
2018-04-12T08:20:16.729Z,19.50
2018-04-12T08:22:45.023Z,20.00
2018-04-12T08:25:13.316Z,20.50
2018-04-12T08:27:41.667Z,20.30
2018-04-12T08:30:11.795Z,20.80
2018-04-12T08:32:40.096Z,20.80
2018-04-12T08:35:08.391Z,21.00
2018-04-12T08:37:36.774Z,21.50
2018-04-12T08:40:05.079Z,22.10
2018-04-12T08:42:33.374Z,22.50
2018-04-12T08:45:02.227Z,22.30
2018-04-12T08:47:30.566Z,22.60
2018-04-12T08:49:59.052Z,22.10
2018-04-12T08:52:27.344Z,21.30
2018-04-12T08:54:55.691Z,19.90
2018-04-12T08:57:24.602Z,20.30
2018-04-12T08:59:52.933Z,20.60
2018-04-12T09:02:22.007Z,20.70
2018-04-12T09:04:50.355Z,20.30
2018-04-12T09:07:18.843Z,20.30
2018-04-12T09:09:47.179Z,20.80
2018-04-12T09:12:15.943Z,20.80
2018-04-12T09:14:44.190Z,21.30
2018-04-12T09:17:12.529Z,22.00
2018-04-12T09:19:40.804Z,22.20
2018-04-12T09:22:09.087Z,22.40
2018-04-12T09:24:37.420Z,22.80
2018-04-12T09:27:05.702Z,23.30
2018-04-12T09:29:34.476Z,23.50
2018-04-12T09:32:02.943Z,23.10
2018-04-12T09:34:31.227Z,23.40
2018-04-12T09:36:59.528Z,24.30
2018-04-12T09:39:28.141Z,26.20
2018-04-12T09:41:56.439Z,26.10
2018-04-12T09:44:25.293Z,25.00
2018-04-12T09:46:53.642Z,24.20
2018-04-12T09:49:22.067Z,24.20
2018-04-12T09:51:51.391Z,24.10
2018-04-12T09:54:19.683Z,23.60
2018-04-12T09:56:48.037Z,23.80
2018-04-12T09:59:16.347Z,23.80
2018-04-12T10:01:52.943Z,22.70
2018-04-12T10:04:21.603Z,22.70
2018-04-12T10:06:52.672Z,22.50
2018-04-12T10:09:21.796Z,23.20
2018-04-12T10:11:50.203Z,23.20
2018-04-12T10:14:18.975Z,24.70
2018-04-12T10:16:47.286Z,27.40
2018-04-12T10:19:15.571Z,29.00
2018-04-12T10:21:43.860Z,30.80
2018-04-12T10:24:12.210Z,30.30
2018-04-12T10:26:40.591Z,31.60
2018-04-12T10:29:08.960Z,33.00
2018-04-12T10:31:37.308Z,31.50
2018-04-12T10:34:07.055Z,26.80
2018-04-12T10:36:39.483Z,25.50
2018-04-12T10:39:07.987Z,24.10
2018-04-12T10:41:37.686Z,23.80
2018-04-12T10:44:05.957Z,24.80
2018-04-12T10:46:34.242Z,25.10
2018-04-12T10:49:02.545Z,26.20
2018-04-12T10:51:31.542Z,25.50
2018-04-12T10:53:59.904Z,25.40
2018-04-12T10:56:28.491Z,24.00
2018-04-12T10:58:57.896Z,23.90
2018-04-12T11:01:26.516Z,23.90
2018-04-12T11:03:54.867Z,23.60
2018-04-12T11:06:23.612Z,24.90
2018-04-12T11:08:52.836Z,25.90
2018-04-12T11:11:22.562Z,27.40
2018-04-12T11:13:50.854Z,26.30
2018-04-12T11:16:19.221Z,25.90
2018-04-12T11:18:48.291Z,25.90
2018-04-12T11:21:16.661Z,25.90
2018-04-12T11:23:45.535Z,26.00
2018-04-12T11:26:13.899Z,25.70
2018-04-12T11:28:42.983Z,25.20
2018-04-12T11:31:12.212Z,24.50
2018-04-12T11:33:40.451Z,25.40
2018-04-12T11:36:08.734Z,26.30
2018-04-12T11:38:37.090Z,24.20
2018-04-12T11:41:05.379Z,24.50
2018-04-12T11:43:33.659Z,24.80
2018-04-12T11:46:02.003Z,26.10
2018-04-12T11:48:30.851Z,26.70
2018-04-12T11:50:59.747Z,25.70
2018-04-12T11:53:28.600Z,26.80
2018-04-12T11:55:57.380Z,26.80
2018-04-12T11:58:26.483Z,25.60
2018-04-12T12:00:54.775Z,24.30
2018-04-12T12:03:23.395Z,24.70
2018-04-12T12:05:52.812Z,24.30
2018-04-12T12:08:21.101Z,24.30
2018-04-12T12:10:49.503Z,24.60
2018-04-12T12:13:17.855Z,24.10
2018-04-12T12:15:46.875Z,24.50
2018-04-12T12:18:16.014Z,25.20
2018-04-12T12:20:44.275Z,24.90
2018-04-12T12:23:13.159Z,24.50
2018-04-12T12:25:41.783Z,24.80
2018-04-12T12:28:10.542Z,25.10
2018-04-12T12:30:38.827Z,25.40
2018-04-12T12:33:07.960Z,25.50
2018-04-12T12:35:36.555Z,25.10
2018-04-12T12:38:05.463Z,25.00
2018-04-12T12:40:34.284Z,24.70
2018-04-12T12:43:03.355Z,25.00
2018-04-12T12:45:31.543Z,25.40
2018-04-12T12:48:02.576Z,25.20
2018-04-12T12:50:30.876Z,25.20
2018-04-12T12:52:59.378Z,25.50
2018-04-12T12:55:27.656Z,25.60
2018-04-12T12:57:56.455Z,24.90
2018-04-12T13:00:24.771Z,24.70
2018-04-12T13:02:53.063Z,24.00
2018-04-12T13:05:21.315Z,24.30
2018-04-12T13:07:49.642Z,24.60
2018-04-12T13:10:19.203Z,24.70
2018-04-12T13:12:47.482Z,24.90
2018-04-12T13:15:15.835Z,25.30
2018-04-12T13:17:44.239Z,25.90
2018-04-12T13:20:12.823Z,25.90
2018-04-12T13:22:41.704Z,26.00
2018-04-12T13:25:10.187Z,25.60
2018-04-12T13:27:38.483Z,25.40
2018-04-12T13:30:06.820Z,25.10
2018-04-12T13:32:34.926Z,24.80
2018-04-12T13:35:03.727Z,24.60
2018-04-12T13:37:32.178Z,24.70
2018-04-12T13:40:01.002Z,25.10
2018-04-12T13:42:30.171Z,24.90
2018-04-12T13:44:59.431Z,24.90
2018-04-12T13:47:27.742Z,24.90
2018-04-12T13:49:56.954Z,25.20
2018-04-12T13:52:25.273Z,25.50
2018-04-12T13:54:54.275Z,24.90
2018-04-12T13:57:22.647Z,24.90
2018-04-12T13:59:52.559Z,25.00
2018-04-12T14:02:22.288Z,25.20
2018-04-12T14:04:50.630Z,26.10
2018-04-12T14:07:18.987Z,26.90
2018-04-12T14:09:48.079Z,27.50
2018-04-12T14:12:16.436Z,27.80
2018-04-12T14:14:44.728Z,28.50
2018-04-12T14:17:13.715Z,29.20
2018-04-12T14:19:42.368Z,28.40
2018-04-12T14:22:10.683Z,27.20
2018-04-12T14:24:38.735Z,26.90
2018-04-12T14:27:07.087Z,26.20
2018-04-12T14:29:36.499Z,25.80
2018-04-12T14:32:05.339Z,25.70
2018-04-12T14:34:34.527Z,25.80
2018-04-12T14:37:03.522Z,25.30
2018-04-12T14:39:31.922Z,25.00
2018-04-12T14:42:00.414Z,24.80
2018-04-12T14:44:28.902Z,24.50
2018-04-12T14:46:58.308Z,24.50
2018-04-12T14:49:27.263Z,24.50
2018-04-12T14:51:55.840Z,24.50
2018-04-12T14:54:24.883Z,25.30
2018-04-12T14:56:53.164Z,25.40
2018-04-12T14:59:21.455Z,25.30
2018-04-12T15:01:49.968Z,25.40
2018-04-12T15:04:18.758Z,25.70
2018-04-12T15:06:47.124Z,26.10
2018-04-12T15:09:15.443Z,26.10
2018-04-12T15:11:43.731Z,26.30
2018-04-12T15:14:12.815Z,25.70
2018-04-12T15:16:42.042Z,25.70
2018-04-12T15:19:10.740Z,25.80
2018-04-12T15:21:40.195Z,25.20
2018-04-12T15:24:08.334Z,25.20
2018-04-12T15:26:36.650Z,25.30
2018-04-12T15:29:04.927Z,24.70
2018-04-12T15:31:33.431Z,24.40
2018-04-12T15:34:01.723Z,23.60
2018-04-12T15:36:30.047Z,23.30
2018-04-12T15:38:58.375Z,23.20
2018-04-12T15:41:26.662Z,23.00
2018-04-12T15:43:54.995Z,22.70
2018-04-12T15:46:23.274Z,22.70
2018-04-12T15:48:51.814Z,23.00
2018-04-12T15:51:20.103Z,22.60
2018-04-12T15:53:48.591Z,22.70
2018-04-12T15:56:16.887Z,23.30
2018-04-12T15:58:45.383Z,23.90
2018-04-12T16:01:13.719Z,24.50
2018-04-12T16:03:42.518Z,25.00
2018-04-12T16:06:10.807Z,24.70
2018-04-12T16:08:39.173Z,24.10
2018-04-12T16:11:08.169Z,23.20
2018-04-12T16:13:36.500Z,22.70
2018-04-12T16:16:04.829Z,22.20
2018-04-12T16:18:33.124Z,21.60
2018-04-12T16:21:01.513Z,21.20
2018-04-12T16:23:31.187Z,21.10
2018-04-12T16:25:59.491Z,21.00
2018-04-12T16:28:27.831Z,20.90
2018-04-12T16:30:56.514Z,20.70
2018-04-12T16:33:24.803Z,20.70
2018-04-12T16:35:53.124Z,20.60
2018-04-12T16:38:21.466Z,20.70
2018-04-12T16:40:49.752Z,21.20
2018-04-12T16:43:18.035Z,21.90
2018-04-12T16:45:46.655Z,22.30
2018-04-12T16:48:14.940Z,22.10
2018-04-12T16:50:43.226Z,21.70
2018-04-12T16:53:11.651Z,21.30
2018-04-12T16:55:39.938Z,21.10
2018-04-12T16:58:08.223Z,20.90
2018-04-12T17:00:36.535Z,20.70
2018-04-12T17:03:04.810Z,20.60
2018-04-12T17:05:33.637Z,20.40
2018-04-12T17:08:01.965Z,20.60
2018-04-12T17:10:30.248Z,20.50
2018-04-12T17:12:58.527Z,20.60
2018-04-12T17:15:27.299Z,20.30
2018-04-12T17:17:55.605Z,20.30
2018-04-12T17:20:24.719Z,20.30
2018-04-12T17:22:53.007Z,20.10
2018-04-12T17:25:21.303Z,19.70
2018-04-12T17:27:49.815Z,19.60
2018-04-12T17:30:18.270Z,19.50
2018-04-12T17:32:46.561Z,19.50
2018-04-12T17:35:15.651Z,19.20
2018-04-12T17:37:43.954Z,19.20
2018-04-12T17:40:12.243Z,19.20
2018-04-12T17:42:40.965Z,19.00
2018-04-12T17:45:09.351Z,18.80
2018-04-12T17:47:37.636Z,18.60
2018-04-12T17:50:06.075Z,18.40
2018-04-12T17:52:34.368Z,18.30
2018-04-12T17:55:03.271Z,18.20
2018-04-12T17:57:31.615Z,18.10
2018-04-12T18:00:00.441Z,17.80
2018-04-12T18:02:29.294Z,17.60
2018-04-12T18:04:57.734Z,17.40
2018-04-12T18:07:27.007Z,17.30
2018-04-12T18:09:55.291Z,17.00
2018-04-12T18:12:24.187Z,16.80
2018-04-12T18:14:53.023Z,16.70
2018-04-12T18:17:22.117Z,16.40
2018-04-12T18:19:50.576Z,16.30
2018-04-12T18:22:18.867Z,16.10
2018-04-12T18:24:48.276Z,16.30
2018-04-12T18:27:16.413Z,16.20
2018-04-12T18:29:46.627Z,16.10
2018-04-12T18:32:15.351Z,16.00
2018-04-12T18:34:45.201Z,16.00
2018-04-12T18:37:13.483Z,15.70
2018-04-12T18:39:41.819Z,15.30
2018-04-12T18:42:10.246Z,15.00
2018-04-12T18:44:38.754Z,14.70
2018-04-12T18:47:07.031Z,14.60
2018-04-12T18:49:35.391Z,14.40
2018-04-12T18:52:04.917Z,14.00
2018-04-12T18:54:34.122Z,14.00
2018-04-12T18:57:02.607Z,13.70
2018-04-12T18:59:31.366Z,13.60
2018-04-12T19:01:59.818Z,13.40
2018-04-12T19:04:28.092Z,13.30
2018-04-12T19:06:56.396Z,13.20
2018-04-12T19:09:26.667Z,13.10
2018-04-12T19:11:55.622Z,13.20
2018-04-12T19:14:25.103Z,13.50
2018-04-12T19:16:53.400Z,13.30
2018-04-12T19:19:22.444Z,13.10
2018-04-12T19:21:51.282Z,12.90
2018-04-12T19:24:20.705Z,12.70
2018-04-12T19:26:48.999Z,12.70
2018-04-12T19:29:17.963Z,12.90
2018-04-12T19:31:46.318Z,13.00
2018-04-12T19:34:14.615Z,12.80
2018-04-12T19:36:43.654Z,12.80
2018-04-12T19:39:12.490Z,12.60
2018-04-12T19:41:40.799Z,12.70
2018-04-12T19:44:10.439Z,12.80
2018-04-12T19:46:38.722Z,12.80
2018-04-12T19:49:07.007Z,12.60
2018-04-12T19:51:35.335Z,12.90
2018-04-12T19:54:03.623Z,12.70
2018-04-12T19:56:32.475Z,12.60
2018-04-12T19:59:01.381Z,12.60
2018-04-12T20:01:29.679Z,12.50
2018-04-12T20:03:57.983Z,12.50
2018-04-12T20:06:26.617Z,12.50
2018-04-12T20:08:54.909Z,12.50
2018-04-12T20:11:23.240Z,12.50
2018-04-12T20:13:52.855Z,12.50
2018-04-12T20:16:21.919Z,12.50
2018-04-12T20:18:51.028Z,12.20
2018-04-12T20:21:19.415Z,12.20
2018-04-12T20:23:48.275Z,12.20
2018-04-12T20:26:16.817Z,12.00
2018-04-12T20:28:46.635Z,11.90
2018-04-12T20:31:15.283Z,11.80
2018-04-12T20:33:44.343Z,11.80
2018-04-12T20:36:14.567Z,11.80
2018-04-12T20:38:43.383Z,11.70
2018-04-12T20:41:12.927Z,11.90
2018-04-12T20:43:42.716Z,11.90
2018-04-12T20:46:11.148Z,11.50
2018-04-12T20:48:39.504Z,11.30
2018-04-12T20:51:08.535Z,11.00
2018-04-12T20:53:37.136Z,10.80
2018-04-12T20:56:06.751Z,10.80
2018-04-12T20:58:34.950Z,10.60
2018-04-12T21:01:03.340Z,10.40
2018-04-12T21:03:31.636Z,10.40
2018-04-12T21:05:59.972Z,10.40
2018-04-12T21:08:28.982Z,10.30
2018-04-12T21:10:57.270Z,10.20
2018-04-12T21:13:25.607Z,10.10
2018-04-12T21:15:53.898Z,10.20
2018-04-12T21:18:22.198Z,10.10
2018-04-12T21:20:50.560Z,10.00
2018-04-12T21:23:18.856Z,10.00
2018-04-12T21:25:47.149Z,10.20
2018-04-12T21:28:16.111Z,10.10
2018-04-12T21:30:44.402Z,9.90
2018-04-12T21:33:12.693Z,9.70
2018-04-12T21:35:41.026Z,9.70
2018-04-12T21:38:10.143Z,9.70
2018-04-12T21:40:38.420Z,9.80
2018-04-12T21:43:06.758Z,9.50
2018-04-12T21:45:36.403Z,9.30
2018-04-12T21:48:04.690Z,9.30
2018-04-12T21:50:33.020Z,9.20
2018-04-12T21:53:01.315Z,9.20
2018-04-12T21:55:30.283Z,9.10
2018-04-12T21:57:58.871Z,8.90
2018-04-12T22:00:27.174Z,8.70
2018-04-12T22:02:56.007Z,8.70
2018-04-12T22:05:24.363Z,8.70
2018-04-12T22:07:52.979Z,8.50
2018-04-12T22:10:21.579Z,8.40
2018-04-12T22:12:49.925Z,8.50
2018-04-12T22:15:18.215Z,8.60
2018-04-12T22:17:46.503Z,8.50
2018-04-12T22:20:15.602Z,8.50
2018-04-12T22:22:43.894Z,8.50
2018-04-12T22:25:12.238Z,8.50
2018-04-12T22:27:40.583Z,8.40
2018-04-12T22:30:08.877Z,8.20
2018-04-12T22:32:37.167Z,8.10
2018-04-12T22:35:05.486Z,8.00
2018-04-12T22:37:34.307Z,8.00
2018-04-12T22:40:02.584Z,7.90
2018-04-12T22:42:30.904Z,7.90
2018-04-12T22:44:59.186Z,8.40
2018-04-12T22:47:28.275Z,8.80
2018-04-12T22:49:57.115Z,9.10
2018-04-12T22:52:26.511Z,9.10
2018-04-12T22:54:56.126Z,8.90
2018-04-12T22:57:24.250Z,8.60
2018-04-12T22:59:53.084Z,8.40
2018-04-12T23:02:22.320Z,8.30
2018-04-12T23:04:50.607Z,8.30
2018-04-12T23:07:19.650Z,8.20
2018-04-12T23:09:47.955Z,8.20
2018-04-12T23:12:16.815Z,8.10
2018-04-12T23:14:45.135Z,8.00
2018-04-12T23:17:14.827Z,7.90
2018-04-12T23:19:43.104Z,7.70
2018-04-12T23:22:11.583Z,7.40
2018-04-12T23:24:39.866Z,7.30
2018-04-12T23:27:09.077Z,7.40
2018-04-12T23:29:37.995Z,7.30
2018-04-12T23:32:06.880Z,7.20
2018-04-12T23:34:36.043Z,7.20
2018-04-12T23:37:04.737Z,7.20
2018-04-12T23:39:33.027Z,7.00
2018-04-12T23:42:01.303Z,7.10
2018-04-12T23:44:29.657Z,7.20
2018-04-12T23:46:57.935Z,7.10
2018-04-12T23:49:26.355Z,7.10
2018-04-12T23:51:54.706Z,7.20
2018-04-12T23:54:22.983Z,7.20
2018-04-12T23:56:51.307Z,7.20
2018-04-12T23:59:19.596Z,7.00
